createdAt,value
2023-07-05T00:00:51.379Z,2.72
2023-07-05T00:03:19.447Z,2.55
2023-07-05T00:05:47.538Z,2.55
2023-07-05T00:08:15.696Z,2.78
2023-07-05T00:10:43.800Z,2.85
2023-07-05T00:13:11.910Z,2.80
2023-07-05T00:15:39.917Z,3.15
2023-07-05T00:18:09.286Z,3.25
2023-07-05T00:20:38.641Z,2.80
2023-07-05T00:23:07.015Z,3.50
2023-07-05T00:25:35.039Z,3.63
2023-07-05T00:28:03.071Z,3.60
2023-07-05T00:30:31.177Z,3.75
2023-07-05T00:32:59.221Z,4.18
2023-07-05T00:35:28.706Z,4.47
2023-07-05T00:37:57.504Z,4.20
2023-07-05T00:40:25.505Z,4.18
2023-07-05T00:42:53.586Z,4.63
2023-07-05T00:45:51.578Z,5.22
2023-07-05T00:48:23.487Z,4.50
2023-07-05T00:50:56.693Z,4.97
2023-07-05T00:53:26.151Z,4.88
2023-07-05T00:55:59.882Z,4.90
2023-07-05T00:58:28.011Z,5.32
2023-07-05T01:00:56.813Z,5.50
2023-07-05T01:03:27.564Z,4.63
2023-07-05T01:06:00.307Z,5.47
2023-07-05T01:08:28.330Z,4.93
2023-07-05T01:11:10.145Z,5.55
2023-07-05T01:13:44.158Z,5.57
2023-07-05T01:16:28.726Z,5.72
2023-07-05T01:19:06.935Z,5.43
2023-07-05T01:21:45.411Z,5.63
2023-07-05T01:24:52.008Z,5.65
2023-07-05T01:27:40.915Z,5.38
2023-07-05T01:30:53.914Z,5.97
2023-07-05T01:33:29.822Z,6.10
2023-07-05T01:35:59.001Z,5.40
2023-07-05T01:38:27.085Z,6.40
2023-07-05T01:40:59.708Z,5.70
2023-07-05T01:43:29.155Z,5.38
2023-07-05T01:46:23.828Z,5.20
2023-07-05T01:49:32.446Z,5.00
2023-07-05T01:52:10.170Z,6.22
2023-07-05T01:54:45.206Z,5.65
2023-07-05T01:57:18.801Z,5.72
2023-07-05T01:59:56.855Z,5.43
2023-07-05T02:02:28.559Z,5.57
2023-07-05T02:04:58.199Z,4.63
2023-07-05T02:07:28.789Z,4.85
2023-07-05T02:09:57.419Z,4.55
2023-07-05T02:12:26.408Z,4.75
2023-07-05T02:14:55.076Z,4.40
2023-07-05T02:17:24.085Z,4.55
2023-07-05T02:19:52.551Z,4.32
2023-07-05T02:22:21.060Z,4.13
2023-07-05T02:24:52.970Z,3.83
2023-07-05T02:27:21.600Z,3.72
2023-07-05T02:29:49.744Z,3.80
2023-07-05T02:32:17.910Z,3.97
2023-07-05T02:34:46.144Z,3.88
2023-07-05T02:37:15.303Z,3.88
2023-07-05T02:39:43.749Z,3.47
2023-07-05T02:42:13.177Z,3.83
2023-07-05T02:44:42.047Z,3.42
2023-07-05T02:47:10.247Z,3.47
2023-07-05T02:49:38.468Z,3.65
2023-07-05T02:52:07.472Z,3.30
2023-07-05T02:54:35.485Z,3.53
2023-07-05T02:57:03.849Z,2.90
2023-07-05T02:59:33.320Z,3.47
2023-07-05T03:02:01.410Z,2.92
2023-07-05T03:04:29.805Z,3.20
2023-07-05T03:06:58.681Z,2.83
2023-07-05T03:09:26.807Z,2.92
2023-07-05T03:11:54.898Z,2.83
2023-07-05T03:14:22.920Z,2.22
2023-07-05T03:16:52.483Z,3.30
2023-07-05T03:19:20.641Z,2.80
2023-07-05T03:21:49.912Z,2.40
2023-07-05T03:24:18.938Z,2.45
2023-07-05T03:26:47.245Z,2.45
2023-07-05T03:29:15.813Z,2.92
2023-07-05T03:31:43.930Z,2.72
2023-07-05T03:34:13.341Z,2.38
2023-07-05T03:36:41.369Z,2.47
2023-07-05T03:39:09.465Z,2.63
2023-07-05T03:41:38.317Z,2.30
2023-07-05T03:44:06.326Z,2.90
2023-07-05T03:46:34.403Z,2.20
2023-07-05T03:49:02.529Z,2.20
2023-07-05T03:51:31.990Z,2.40
2023-07-05T03:54:00.200Z,2.70
2023-07-05T03:56:29.636Z,2.33
2023-07-05T03:58:58.590Z,2.50
2023-07-05T04:01:28.331Z,2.50
2023-07-05T04:03:57.862Z,2.40
2023-07-05T04:06:27.739Z,2.20
2023-07-05T04:08:57.177Z,2.45
2023-07-05T04:11:25.722Z,1.77
2023-07-05T04:13:56.661Z,2.35
2023-07-05T04:16:27.463Z,2.40
2023-07-05T04:18:57.294Z,2.70
2023-07-05T04:21:26.422Z,2.35
2023-07-05T04:23:54.795Z,2.47
2023-07-05T04:26:27.583Z,2.22
2023-07-05T04:28:55.951Z,2.58
2023-07-05T04:31:29.724Z,3.00
2023-07-05T04:33:58.468Z,2.75
2023-07-05T04:36:28.598Z,2.92
2023-07-05T04:38:57.922Z,2.92
2023-07-05T04:41:28.041Z,2.55
2023-07-05T04:43:56.281Z,2.63
2023-07-05T04:46:24.785Z,2.60
2023-07-05T04:48:53.313Z,3.17
2023-07-05T04:51:21.729Z,3.72
2023-07-05T04:53:50.077Z,3.13
2023-07-05T04:56:18.300Z,3.38
2023-07-05T04:58:49.994Z,3.30
2023-07-05T05:01:20.416Z,3.22
2023-07-05T05:03:48.780Z,3.40
2023-07-05T05:06:17.089Z,3.30
2023-07-05T05:08:45.160Z,3.55
2023-07-05T05:11:13.129Z,3.45
2023-07-05T05:13:41.277Z,4.00
2023-07-05T05:16:10.712Z,4.53
2023-07-05T05:18:39.512Z,4.60
2023-07-05T05:21:07.527Z,3.42
2023-07-05T05:23:35.525Z,3.67
2023-07-05T05:26:04.033Z,4.00
2023-07-05T05:28:32.275Z,4.13
2023-07-05T05:31:05.817Z,3.63
2023-07-05T05:33:35.620Z,3.75
2023-07-05T05:36:04.460Z,4.90
2023-07-05T05:38:32.512Z,3.75
2023-07-05T05:41:05.217Z,4.32
2023-07-05T05:43:33.463Z,4.10
2023-07-05T05:46:01.527Z,4.30
2023-07-05T05:48:29.724Z,3.55
2023-07-05T05:51:00.270Z,3.72
2023-07-05T05:53:28.443Z,4.47
2023-07-05T05:55:58.554Z,4.43
2023-07-05T05:58:27.321Z,4.72
2023-07-05T06:00:55.953Z,4.35
2023-07-05T06:03:24.407Z,4.38
2023-07-05T06:05:53.029Z,5.22
2023-07-05T06:08:22.549Z,4.88
2023-07-05T06:10:56.765Z,4.78
2023-07-05T06:13:24.933Z,4.53
2023-07-05T06:16:12.208Z,4.47
2023-07-05T06:18:42.019Z,4.85
2023-07-05T06:21:12.474Z,4.85
2023-07-05T06:23:42.009Z,4.47
2023-07-05T06:26:10.885Z,5.03
2023-07-05T06:28:38.998Z,5.10
2023-07-05T06:31:07.927Z,4.88
2023-07-05T06:33:36.111Z,4.40
2023-07-05T06:36:04.365Z,4.60
2023-07-05T06:38:32.442Z,5.22
2023-07-05T06:41:01.786Z,4.40
2023-07-05T06:43:29.973Z,5.03
2023-07-05T06:45:59.038Z,4.65
2023-07-05T06:48:27.261Z,4.65
2023-07-05T06:50:56.602Z,4.43
2023-07-05T06:55:57.474Z,4.30
2023-07-05T06:58:26.876Z,4.82
2023-07-05T07:00:55.156Z,4.55
2023-07-05T07:03:23.355Z,3.45
2023-07-05T07:05:54.026Z,4.68
2023-07-05T07:08:22.670Z,3.72
2023-07-05T07:11:15.769Z,3.90
2023-07-05T07:13:45.294Z,4.43
2023-07-05T07:16:15.719Z,3.90
2023-07-05T07:18:46.932Z,4.45
2023-07-05T07:21:15.651Z,4.63
2023-07-05T07:23:43.758Z,4.22
2023-07-05T07:26:13.915Z,4.18
2023-07-05T07:28:42.294Z,5.15
2023-07-05T07:31:13.238Z,4.43
2023-07-05T07:33:41.538Z,4.43
2023-07-05T07:36:11.228Z,4.75
2023-07-05T07:38:39.910Z,5.70
2023-07-05T07:41:13.736Z,5.18
2023-07-05T07:43:41.803Z,4.78
2023-07-05T07:46:12.963Z,4.95
2023-07-05T07:49:33.789Z,4.22
2023-07-05T07:52:01.995Z,5.03
2023-07-05T07:54:32.373Z,4.95
2023-07-05T07:57:00.516Z,5.03
2023-07-05T07:59:28.614Z,5.05
2023-07-05T08:01:58.026Z,5.28
2023-07-05T08:04:27.669Z,4.53
2023-07-05T08:06:55.819Z,5.00
2023-07-05T08:09:27.214Z,4.72
2023-07-05T08:11:57.532Z,4.55
2023-07-05T08:14:25.702Z,4.85
2023-07-05T08:16:54.003Z,5.10
2023-07-05T08:19:24.003Z,4.55
2023-07-05T08:26:43.251Z,5.32
2023-07-05T08:29:11.469Z,5.22
2023-07-05T08:31:39.573Z,5.03
2023-07-05T08:34:07.574Z,5.20
2023-07-05T08:36:39.333Z,4.72
2023-07-05T08:39:08.988Z,5.10
2023-07-05T08:41:53.721Z,4.68
2023-07-05T08:44:26.218Z,4.40
2023-07-05T08:46:59.578Z,4.63
2023-07-05T08:49:34.083Z,4.38
2023-07-05T08:52:03.721Z,4.35
2023-07-05T08:54:34.086Z,4.30
2023-07-05T08:57:06.569Z,4.35
2023-07-05T08:59:47.003Z,3.90
2023-07-05T09:02:18.777Z,4.30
2023-07-05T09:04:48.997Z,3.40
2023-07-05T09:08:07.166Z,3.47
2023-07-05T09:10:43.926Z,3.60
2023-07-05T09:13:18.134Z,3.65
2023-07-05T09:15:51.543Z,3.22
2023-07-05T09:18:28.633Z,3.00
2023-07-05T09:21:09.777Z,2.70
2023-07-05T09:23:42.566Z,3.35
2023-07-05T09:26:17.187Z,3.10
2023-07-05T09:28:52.611Z,2.97
2023-07-05T09:31:23.766Z,3.35
2023-07-05T09:34:00.487Z,2.95
2023-07-05T09:36:29.614Z,3.17
2023-07-05T09:39:04.126Z,3.63
2023-07-05T09:41:42.361Z,3.13
2023-07-05T09:44:10.394Z,3.17
2023-07-05T09:46:40.198Z,2.85
2023-07-05T09:49:14.911Z,2.93
2023-07-05T09:51:45.239Z,2.40
2023-07-05T09:54:20.261Z,2.53
2023-07-05T09:57:03.143Z,2.30
2023-07-05T09:59:31.266Z,2.13
2023-07-05T10:02:26.485Z,2.30
2023-07-05T10:04:58.120Z,2.25
2023-07-05T10:12:17.651Z,2.33
2023-07-05T10:14:47.141Z,2.05
2023-07-05T10:17:15.231Z,2.38
2023-07-05T10:19:50.174Z,2.20
2023-07-05T10:22:29.068Z,2.17
2023-07-05T10:25:00.598Z,2.50
2023-07-05T10:27:55.514Z,2.47
2023-07-05T10:30:23.563Z,2.47
2023-07-05T10:33:11.022Z,2.80
2023-07-05T10:35:48.273Z,2.65
2023-07-05T10:38:28.193Z,2.88
2023-07-05T10:41:03.549Z,3.30
2023-07-05T10:43:34.848Z,2.75
2023-07-05T10:46:05.000Z,3.15
2023-07-05T10:48:41.777Z,3.50
2023-07-05T10:51:21.192Z,3.78
2023-07-05T10:53:54.783Z,2.90
2023-07-05T10:56:26.282Z,3.58
2023-07-05T10:59:02.139Z,3.33
2023-07-05T11:01:34.533Z,4.20
2023-07-05T11:04:07.209Z,2.58
2023-07-05T11:06:36.471Z,2.20
2023-07-05T11:09:06.999Z,2.20
2023-07-05T11:11:43.049Z,2.28
2023-07-05T11:14:16.242Z,2.65
2023-07-05T11:16:47.217Z,2.70
2023-07-05T11:24:08.409Z,2.60
2023-07-05T11:26:40.022Z,2.45
2023-07-05T11:29:52.565Z,2.13
2023-07-05T11:32:21.563Z,2.00
2023-07-05T11:34:52.288Z,1.95
2023-07-05T11:40:27.058Z,8.13
2023-07-05T11:42:55.562Z,4.55
2023-07-05T11:45:25.123Z,1.83
2023-07-05T11:47:53.673Z,2.10
2023-07-05T11:50:23.745Z,1.73
2023-07-05T11:53:02.588Z,1.75
2023-07-05T11:55:35.504Z,1.67
2023-07-05T11:58:08.468Z,1.92
2023-07-05T12:00:43.548Z,2.13
2023-07-05T12:03:20.606Z,2.20
2023-07-05T12:05:56.235Z,1.90
2023-07-05T12:08:51.049Z,2.30
2023-07-05T12:11:30.894Z,2.00
2023-07-05T12:14:03.432Z,1.93
2023-07-05T12:16:34.248Z,1.70
2023-07-05T12:19:02.883Z,1.75
2023-07-05T12:21:34.234Z,2.03
2023-07-05T12:24:08.761Z,2.88
2023-07-05T12:26:38.302Z,1.65
2023-07-05T12:29:22.832Z,0.95
2023-07-05T12:32:03.776Z,1.00
2023-07-05T12:34:31.862Z,1.35
2023-07-05T12:37:00.122Z,1.25
2023-07-05T12:39:28.183Z,1.63
2023-07-05T12:42:01.039Z,1.50
2023-07-05T12:44:31.234Z,1.40
2023-07-05T12:47:14.755Z,1.50
2023-07-05T12:49:43.037Z,1.50
2023-07-05T12:52:20.713Z,1.77
2023-07-05T12:54:49.137Z,1.50
2023-07-05T12:57:27.720Z,1.42
2023-07-05T13:00:06.022Z,1.33
2023-07-05T13:02:36.864Z,1.77
2023-07-05T13:05:06.410Z,1.58
2023-07-05T13:07:36.527Z,1.42
2023-07-05T13:10:08.570Z,1.67
2023-07-05T13:12:51.074Z,1.42
2023-07-05T13:15:19.319Z,1.27
2023-07-05T13:17:49.243Z,1.38
2023-07-05T13:20:21.800Z,1.73
2023-07-05T13:22:58.545Z,1.80
2023-07-05T13:25:32.726Z,1.85
2023-07-05T13:28:03.805Z,1.63
2023-07-05T13:30:32.801Z,1.88
2023-07-05T13:33:03.490Z,1.88
2023-07-05T13:35:33.788Z,3.13
2023-07-05T13:38:03.425Z,1.70
2023-07-05T13:40:33.149Z,1.90
2023-07-05T13:43:04.125Z,1.80
2023-07-05T13:45:34.244Z,1.95
2023-07-05T13:48:03.941Z,1.90
2023-07-05T13:50:35.309Z,2.03
2023-07-05T13:53:05.099Z,2.10
2023-07-05T13:55:34.430Z,2.13
2023-07-05T13:58:07.872Z,1.60
2023-07-05T14:00:37.375Z,1.75
2023-07-05T14:03:10.006Z,1.60
2023-07-05T14:05:38.234Z,1.50
2023-07-05T14:08:08.553Z,1.45
2023-07-05T14:10:37.235Z,1.10
2023-07-05T14:13:05.247Z,1.70
2023-07-05T14:15:37.701Z,1.40
2023-07-05T14:18:08.383Z,1.30
2023-07-05T14:20:39.108Z,1.42
2023-07-05T14:25:42.346Z,1.63
2023-07-05T14:28:10.472Z,1.10
2023-07-05T14:30:39.462Z,1.48
2023-07-05T14:33:11.282Z,1.27
2023-07-05T14:35:39.531Z,1.33
2023-07-05T14:38:09.469Z,1.00
2023-07-05T14:40:38.908Z,1.20
2023-07-05T14:43:07.029Z,1.33
2023-07-05T14:45:38.493Z,1.10
2023-07-05T14:48:08.406Z,1.30
2023-07-05T14:50:36.928Z,1.30
2023-07-05T14:53:07.816Z,1.10
2023-07-05T14:56:01.781Z,1.35
2023-07-05T14:58:54.637Z,1.13
2023-07-05T15:01:22.797Z,1.30
2023-07-05T15:03:53.745Z,1.38
2023-07-05T15:06:21.831Z,1.30
2023-07-05T15:08:50.372Z,1.42
2023-07-05T15:11:18.843Z,1.52
2023-07-05T15:13:48.106Z,1.38
2023-07-05T15:17:06.459Z,1.30
2023-07-05T15:19:35.857Z,1.33
2023-07-05T15:22:04.940Z,1.17
2023-07-05T15:24:34.366Z,1.35
2023-07-05T15:27:02.420Z,1.67
2023-07-05T15:29:30.848Z,1.40
2023-07-05T15:31:58.877Z,1.35
2023-07-05T15:34:27.163Z,1.50
2023-07-05T15:36:56.678Z,1.35
2023-07-05T15:39:25.011Z,1.65
2023-07-05T15:41:53.712Z,1.40
2023-07-05T15:44:21.740Z,1.40
2023-07-05T15:46:49.753Z,1.58
2023-07-05T15:49:17.840Z,1.50
2023-07-05T15:51:45.835Z,1.40
2023-07-05T15:54:16.451Z,1.40
2023-07-05T15:59:37.738Z,1.40
2023-07-05T16:02:09.920Z,1.40
2023-07-05T16:09:11.202Z,1.48
2023-07-05T16:11:41.474Z,2.50
2023-07-05T16:14:09.454Z,1.40
2023-07-05T16:16:37.632Z,1.25
2023-07-05T16:19:06.082Z,1.80
2023-07-05T16:21:34.329Z,2.00
2023-07-05T16:24:02.406Z,2.03
2023-07-05T16:26:30.391Z,3.30
2023-07-05T16:28:59.783Z,1.45
2023-07-05T16:31:28.004Z,1.90
2023-07-05T16:34:21.763Z,1.90
2023-07-05T16:36:50.105Z,1.85
2023-07-05T16:39:20.288Z,1.80
2023-07-05T16:41:49.794Z,3.17
2023-07-05T16:44:19.641Z,1.40
2023-07-05T16:46:47.736Z,1.40
2023-07-05T16:49:15.885Z,1.42
2023-07-05T16:51:43.871Z,1.95
2023-07-05T16:54:11.882Z,1.30
2023-07-05T16:56:39.865Z,1.60
2023-07-05T16:59:08.563Z,7.80
2023-07-05T17:01:38.017Z,2.38
2023-07-05T17:04:06.790Z,2.80
2023-07-05T17:06:35.318Z,1.80
2023-07-05T17:09:29.824Z,2.70
2023-07-05T17:11:58.441Z,2.95
2023-07-05T17:14:26.411Z,3.72
2023-07-05T17:18:11.496Z,2.00
2023-07-05T17:20:40.917Z,2.42
2023-07-05T17:23:09.058Z,1.70
2023-07-05T17:25:37.271Z,1.65
2023-07-05T17:28:07.912Z,1.48
2023-07-05T17:30:38.775Z,2.22
2023-07-05T17:33:09.198Z,2.42
2023-07-05T17:35:37.733Z,3.40
2023-07-05T17:38:07.156Z,3.42
2023-07-05T17:40:35.471Z,4.13
2023-07-05T17:43:04.677Z,2.30
2023-07-05T17:45:35.911Z,1.70
2023-07-05T17:48:04.425Z,1.63
2023-07-05T17:50:32.849Z,1.70
2023-07-05T17:53:01.686Z,1.58
2023-07-05T17:55:31.100Z,1.65
2023-07-05T17:58:02.184Z,1.50
2023-07-05T18:00:30.395Z,1.92
2023-07-05T18:02:58.488Z,3.00
2023-07-05T18:05:27.286Z,1.63
2023-07-05T18:07:55.385Z,2.17
2023-07-05T18:10:24.274Z,1.70
2023-07-05T18:12:54.446Z,1.60
2023-07-05T18:15:22.507Z,1.75
2023-07-05T18:17:50.530Z,1.73
2023-07-05T18:20:18.635Z,1.40
2023-07-05T18:22:47.427Z,2.15
2023-07-05T18:25:15.866Z,2.38
2023-07-05T18:27:44.082Z,2.50
2023-07-05T18:30:26.204Z,1.90
2023-07-05T18:33:10.853Z,1.75
2023-07-05T18:35:41.245Z,1.52
2023-07-05T18:38:14.500Z,3.50
2023-07-05T18:41:06.915Z,1.77
2023-07-05T18:43:37.097Z,1.92
2023-07-05T18:46:11.373Z,2.33
2023-07-05T18:48:43.223Z,2.35
2023-07-05T18:51:16.057Z,1.75
2023-07-05T18:53:46.745Z,1.53
2023-07-05T18:56:25.750Z,1.92
2023-07-05T18:58:54.021Z,1.50
2023-07-05T19:01:24.062Z,1.75
2023-07-05T19:03:52.794Z,1.40
2023-07-05T19:06:24.039Z,1.80
2023-07-05T19:08:53.785Z,2.15
2023-07-05T19:11:24.898Z,1.73
2023-07-05T19:13:53.670Z,1.67
2023-07-05T19:16:27.697Z,2.13
2023-07-05T19:18:57.435Z,2.40
2023-07-05T19:21:28.202Z,3.10
2023-07-05T19:26:24.255Z,1.98
2023-07-05T19:28:53.089Z,3.22
2023-07-05T19:31:26.335Z,1.70
2023-07-05T19:33:55.224Z,2.55
2023-07-05T19:36:39.161Z,2.15
2023-07-05T19:39:08.122Z,2.20
2023-07-05T19:41:36.424Z,2.72
2023-07-05T19:44:04.594Z,6.13
2023-07-05T19:46:34.664Z,4.47
2023-07-05T19:49:06.125Z,3.88
2023-07-05T19:51:34.307Z,1.90
2023-07-05T19:54:02.406Z,2.03
2023-07-05T19:56:31.897Z,2.33
2023-07-05T19:59:01.151Z,2.53
2023-07-05T20:01:29.717Z,4.20
2023-07-05T20:04:02.057Z,2.65
2023-07-05T20:06:30.549Z,2.40
2023-07-05T20:08:58.788Z,1.73
2023-07-05T20:11:26.989Z,1.85
2023-07-05T20:13:55.419Z,2.03
2023-07-05T20:16:24.110Z,3.42
2023-07-05T20:18:52.240Z,2.80
2023-07-05T20:21:21.737Z,2.17
2023-07-05T20:23:49.974Z,2.28
2023-07-05T20:26:19.838Z,2.60
2023-07-05T20:28:48.460Z,2.17
2023-07-05T20:31:17.515Z,2.65
2023-07-05T20:33:45.618Z,2.35
2023-07-05T20:36:16.411Z,2.42
2023-07-05T20:41:15.492Z,2.10
2023-07-05T20:43:43.902Z,2.42
2023-07-05T20:46:15.647Z,2.50
2023-07-05T20:48:43.839Z,2.63
2023-07-05T20:51:15.467Z,2.63
2023-07-05T20:53:46.478Z,3.53
2023-07-05T20:56:16.566Z,2.45
2023-07-05T20:58:45.741Z,3.05
2023-07-05T21:01:15.933Z,2.28
2023-07-05T21:03:44.703Z,1.85
2023-07-05T21:06:12.670Z,2.58
2023-07-05T21:08:44.828Z,3.22
2023-07-05T21:11:17.100Z,1.67
2023-07-05T21:13:45.142Z,2.17
2023-07-05T21:16:14.191Z,1.98
2023-07-05T21:18:42.510Z,1.95
2023-07-05T21:21:10.906Z,2.35
2023-07-05T21:23:38.997Z,2.45
2023-07-05T21:26:08.400Z,2.05
2023-07-05T21:28:38.005Z,2.08
2023-07-05T21:31:07.711Z,2.10
2023-07-05T21:33:35.822Z,2.38
2023-07-05T21:36:04.259Z,2.10
2023-07-05T21:38:32.671Z,2.72
2023-07-05T21:41:01.582Z,2.20
2023-07-05T21:43:30.746Z,2.53
2023-07-05T21:46:00.631Z,2.50
2023-07-05T21:48:31.434Z,2.00
2023-07-05T21:51:00.338Z,1.70
2023-07-05T21:53:28.936Z,2.00
2023-07-05T21:55:58.390Z,1.90
2023-07-05T21:58:30.216Z,2.20
2023-07-05T22:01:01.202Z,3.33
2023-07-05T22:03:30.635Z,2.08
2023-07-05T22:06:03.041Z,2.30
2023-07-05T22:08:31.465Z,2.00
2023-07-05T22:10:59.765Z,1.85
2023-07-05T22:13:28.564Z,1.95
2023-07-05T22:15:58.138Z,2.13
2023-07-05T22:18:28.033Z,2.13
2023-07-05T22:20:56.073Z,2.00
2023-07-05T22:23:24.736Z,2.13
2023-07-05T22:25:57.387Z,2.20
2023-07-05T22:28:25.594Z,2.42
2023-07-05T22:30:53.622Z,2.00
2023-07-05T22:33:21.736Z,1.88
2023-07-05T22:35:51.425Z,1.83
2023-07-05T22:38:19.468Z,2.10
2023-07-05T22:40:47.456Z,1.80
2023-07-05T22:43:15.461Z,2.38
2023-07-05T22:45:43.516Z,2.38
2023-07-05T22:48:12.543Z,2.03
2023-07-05T22:50:40.530Z,1.80
2023-07-05T22:53:09.930Z,2.35
2023-07-05T22:55:37.967Z,2.50
2023-07-05T22:58:06.047Z,2.00
2023-07-05T23:00:34.088Z,1.85
2023-07-05T23:03:02.224Z,1.90
2023-07-05T23:05:32.430Z,1.80
2023-07-05T23:08:00.778Z,2.17
2023-07-05T23:10:30.163Z,2.00
2023-07-05T23:12:58.292Z,1.80
2023-07-05T23:15:26.430Z,1.75
2023-07-05T23:17:54.616Z,1.67
2023-07-05T23:20:24.328Z,1.67
2023-07-05T23:22:52.769Z,1.67
2023-07-05T23:25:21.083Z,2.28
2023-07-05T23:27:51.258Z,2.75
2023-07-05T23:30:19.667Z,1.65
2023-07-05T23:32:49.926Z,2.22
2023-07-05T23:35:18.081Z,1.92
2023-07-05T23:37:46.074Z,1.83
2023-07-05T23:40:14.587Z,1.42
2023-07-05T23:42:47.739Z,1.60
2023-07-05T23:45:17.324Z,1.90
2023-07-05T23:47:45.456Z,1.40
2023-07-05T23:50:14.148Z,1.80
2023-07-05T23:52:42.168Z,1.30
2023-07-05T23:55:11.315Z,2.05
2023-07-05T23:57:39.647Z,1.60
